sensor_id;sensor_type;location;lat;lon;timestamp;pressure;altitude;pressure_sealevel;temperature;humidity
66196;BME280;53000;45.182;5.736;2022-07-24T00:00:16;99460.16;;;29.06;37.76
66196;BME280;53000;45.182;5.736;2022-07-24T00:02:42;99466.31;;;28.98;37.83
66196;BME280;53000;45.182;5.736;2022-07-24T00:05:08;99458.00;;;28.87;37.87
66196;BME280;53000;45.182;5.736;2022-07-24T00:07:35;99461.13;;;28.75;37.86
66196;BME280;53000;45.182;5.736;2022-07-24T00:10:03;99462.53;;;28.68;37.98
66196;BME280;53000;45.182;5.736;2022-07-24T00:12:28;99455.31;;;28.62;38.33
66196;BME280;53000;45.182;5.736;2022-07-24T00:14:54;99458.41;;;28.60;38.01
66196;BME280;53000;45.182;5.736;2022-07-24T00:17:19;99453.94;;;28.59;37.85
66196;BME280;53000;45.182;5.736;2022-07-24T00:19:45;99454.81;;;28.54;37.34
66196;BME280;53000;45.182;5.736;2022-07-24T00:22:10;99457.88;;;28.48;37.95
66196;BME280;53000;45.182;5.736;2022-07-24T00:24:35;99452.56;;;28.46;37.69
66196;BME280;53000;45.182;5.736;2022-07-24T00:27:01;99457.31;;;28.46;37.99
66196;BME280;53000;45.182;5.736;2022-07-24T00:29:27;99460.66;;;28.48;37.70
66196;BME280;53000;45.182;5.736;2022-07-24T00:31:52;99466.22;;;28.48;37.84
66196;BME280;53000;45.182;5.736;2022-07-24T00:34:18;99464.53;;;28.47;37.18
66196;BME280;53000;45.182;5.736;2022-07-24T00:36:43;99458.97;;;28.47;37.91
66196;BME280;53000;45.182;5.736;2022-07-24T00:39:09;99457.59;;;28.44;37.25
66196;BME280;53000;45.182;5.736;2022-07-24T00:41:34;99467.94;;;28.39;37.12
66196;BME280;53000;45.182;5.736;2022-07-24T00:44:08;99462.09;;;28.35;37.58
66196;BME280;53000;45.182;5.736;2022-07-24T00:46:36;99462.06;;;28.30;37.80
66196;BME280;53000;45.182;5.736;2022-07-24T00:49:05;99468.50;;;28.30;37.31
66196;BME280;53000;45.182;5.736;2022-07-24T00:51:31;99465.16;;;28.28;37.33
66196;BME280;53000;45.182;5.736;2022-07-24T00:53:57;99462.94;;;28.20;37.54
66196;BME280;53000;45.182;5.736;2022-07-24T00:56:22;99461.88;;;28.11;37.64
66196;BME280;53000;45.182;5.736;2022-07-24T00:58:48;99457.66;;;28.08;37.47
66196;BME280;53000;45.182;5.736;2022-07-24T01:01:15;99462.97;;;28.10;37.63
66196;BME280;53000;45.182;5.736;2022-07-24T01:03:40;99458.78;;;28.07;37.23
66196;BME280;53000;45.182;5.736;2022-07-24T01:06:07;99460.75;;;28.07;37.35
66196;BME280;53000;45.182;5.736;2022-07-24T01:08:33;99459.63;;;27.98;37.78
66196;BME280;53000;45.182;5.736;2022-07-24T01:11:00;99466.63;;;27.90;37.66
66196;BME280;53000;45.182;5.736;2022-07-24T01:13:26;99462.41;;;27.82;38.04
66196;BME280;53000;45.182;5.736;2022-07-24T01:15:51;99462.16;;;27.79;37.42
66196;BME280;53000;45.182;5.736;2022-07-24T01:18:17;99457.41;;;27.69;38.17
66196;BME280;53000;45.182;5.736;2022-07-24T01:20:46;99464.91;;;27.63;37.93
66196;BME280;53000;45.182;5.736;2022-07-24T01:23:12;99469.06;;;27.61;37.94
66196;BME280;53000;45.182;5.736;2022-07-24T01:25:38;99466.56;;;27.59;38.52
66196;BME280;53000;45.182;5.736;2022-07-24T01:28:04;99463.53;;;27.56;38.53
66196;BME280;53000;45.182;5.736;2022-07-24T01:30:29;99464.91;;;27.58;38.52
66196;BME280;53000;45.182;5.736;2022-07-24T01:32:55;99457.66;;;27.57;37.91
66196;BME280;53000;45.182;5.736;2022-07-24T01:35:20;99462.41;;;27.57;38.50
66196;BME280;53000;45.182;5.736;2022-07-24T01:37:46;99463.78;;;27.54;39.09
66196;BME280;53000;45.182;5.736;2022-07-24T01:40:11;99463.22;;;27.52;38.64
66196;BME280;53000;45.182;5.736;2022-07-24T01:42:37;99463.50;;;27.50;38.63
66196;BME280;53000;45.182;5.736;2022-07-24T01:45:02;99454.59;;;27.48;38.73
66196;BME280;53000;45.182;5.736;2022-07-24T01:47:28;99456.28;;;27.49;39.21
66196;BME280;53000;45.182;5.736;2022-07-24T01:49:53;99452.13;;;27.52;39.34
66196;BME280;53000;45.182;5.736;2022-07-24T01:52:19;99457.13;;;27.55;39.13
66196;BME280;53000;45.182;5.736;2022-07-24T01:54:44;99456.56;;;27.58;39.95
66196;BME280;53000;45.182;5.736;2022-07-24T01:57:10;99446.84;;;27.61;39.85
66196;BME280;53000;45.182;5.736;2022-07-24T01:59:35;99447.38;;;27.63;39.84
66196;BME280;53000;45.182;5.736;2022-07-24T02:02:01;99444.06;;;27.61;40.57
66196;BME280;53000;45.182;5.736;2022-07-24T02:04:26;99442.09;;;27.61;39.78
66196;BME280;53000;45.182;5.736;2022-07-24T02:06:52;99444.88;;;27.61;39.88
66196;BME280;53000;45.182;5.736;2022-07-24T02:09:17;99439.31;;;27.61;39.59
66196;BME280;53000;45.182;5.736;2022-07-24T02:11:43;99447.97;;;27.60;39.70
66196;BME280;53000;45.182;5.736;2022-07-24T02:14:08;99439.63;;;27.60;39.56
66196;BME280;53000;45.182;5.736;2022-07-24T02:16:34;99443.22;;;27.60;40.02
66196;BME280;53000;45.182;5.736;2022-07-24T02:18:59;99444.59;;;27.63;39.57
66196;BME280;53000;45.182;5.736;2022-07-24T02:21:25;99444.91;;;27.66;39.27
66196;BME280;53000;45.182;5.736;2022-07-24T02:23:50;99438.22;;;27.67;39.12
66196;BME280;53000;45.182;5.736;2022-07-24T02:26:16;99443.50;;;27.69;39.09
66196;BME280;53000;45.182;5.736;2022-07-24T02:28:41;99432.09;;;27.70;38.80
66196;BME280;53000;45.182;5.736;2022-07-24T02:31:07;99437.66;;;27.70;39.23
66196;BME280;53000;45.182;5.736;2022-07-24T02:33:32;99439.31;;;27.71;39.11
66196;BME280;53000;45.182;5.736;2022-07-24T02:35:58;99438.75;;;27.69;38.72
66196;BME280;53000;45.182;5.736;2022-07-24T02:38:23;99442.94;;;27.67;38.81
66196;BME280;53000;45.182;5.736;2022-07-24T02:40:48;99444.91;;;27.66;38.40
66196;BME280;53000;45.182;5.736;2022-07-24T02:43:14;99444.59;;;27.63;38.77
66196;BME280;53000;45.182;5.736;2022-07-24T02:45:39;99442.09;;;27.61;38.45
66196;BME280;53000;45.182;5.736;2022-07-24T02:48:05;99437.09;;;27.58;39.23
66196;BME280;53000;45.182;5.736;2022-07-24T02:50:33;99438.19;;;27.57;39.23
66196;BME280;53000;45.182;5.736;2022-07-24T02:52:59;99439.59;;;27.54;41.22
66196;BME280;53000;45.182;5.736;2022-07-24T02:55:24;99442.66;;;27.48;41.35
66196;BME280;53000;45.182;5.736;2022-07-24T02:57:51;99440.72;;;27.38;41.25
66196;BME280;53000;45.182;5.736;2022-07-24T03:00:17;99436.78;;;27.29;41.25
66196;BME280;53000;45.182;5.736;2022-07-24T03:02:43;99443.16;;;27.19;41.47
66196;BME280;53000;45.182;5.736;2022-07-24T03:05:09;99437.28;;;27.05;42.62
66196;BME280;53000;45.182;5.736;2022-07-24T03:07:35;99446.44;;;26.96;42.08
66196;BME280;53000;45.182;5.736;2022-07-24T03:10:06;99438.94;;;26.91;41.73
66196;BME280;53000;45.182;5.736;2022-07-24T03:12:32;99440.03;;;26.90;42.09
66196;BME280;53000;45.182;5.736;2022-07-24T03:14:57;99435.03;;;26.87;42.63
66196;BME280;53000;45.182;5.736;2022-07-24T03:17:23;99434.16;;;26.76;42.97
66196;BME280;53000;45.182;5.736;2022-07-24T03:19:48;99443.28;;;26.66;43.66
66196;BME280;53000;45.182;5.736;2022-07-24T03:22:13;99442.63;;;26.54;42.97
66196;BME280;53000;45.182;5.736;2022-07-24T03:24:39;99438.44;;;26.46;43.43
66196;BME280;53000;45.182;5.736;2022-07-24T03:27:04;99442.59;;;26.44;42.87
66196;BME280;53000;45.182;5.736;2022-07-24T03:29:30;99444.25;;;26.45;42.92
66196;BME280;53000;45.182;5.736;2022-07-24T03:31:55;99433.41;;;26.43;43.46
66196;BME280;53000;45.182;5.736;2022-07-24T03:34:20;99439.78;;;26.39;43.35
66196;BME280;53000;45.182;5.736;2022-07-24T03:36:46;99441.16;;;26.31;42.81
66196;BME280;53000;45.182;5.736;2022-07-24T03:39:12;99441.41;;;26.29;43.26
66196;BME280;53000;45.182;5.736;2022-07-24T03:41:37;99443.63;;;26.27;42.90
66196;BME280;53000;45.182;5.736;2022-07-24T03:44:03;99448.59;;;26.25;43.42
66196;BME280;53000;45.182;5.736;2022-07-24T03:46:28;99441.91;;;26.21;43.60
66196;BME280;53000;45.182;5.736;2022-07-24T03:48:54;99436.63;;;26.20;43.20
66196;BME280;53000;45.182;5.736;2022-07-24T03:51:20;99442.47;;;26.23;43.47
66196;BME280;53000;45.182;5.736;2022-07-24T03:53:46;99452.19;;;26.21;43.80
66196;BME280;53000;45.182;5.736;2022-07-24T03:56:11;99451.63;;;26.19;43.90
66196;BME280;53000;45.182;5.736;2022-07-24T03:58:37;99451.03;;;26.17;44.34
66196;BME280;53000;45.182;5.736;2022-07-24T04:01:02;99460.75;;;26.14;44.95
66196;BME280;53000;45.182;5.736;2022-07-24T04:03:28;99467.66;;;26.11;45.27
66196;BME280;53000;45.182;5.736;2022-07-24T04:05:53;99471.50;;;26.05;44.93
66196;BME280;53000;45.182;5.736;2022-07-24T04:08:18;99465.06;;;25.95;45.96
66196;BME280;53000;45.182;5.736;2022-07-24T04:10:44;99458.25;;;25.80;45.52
66196;BME280;53000;45.182;5.736;2022-07-24T04:13:10;99469.03;;;25.77;44.97
66196;BME280;53000;45.182;5.736;2022-07-24T04:15:35;99465.97;;;25.73;45.71
66196;BME280;53000;45.182;5.736;2022-07-24T04:18:01;99472.59;;;25.72;45.77
66196;BME280;53000;45.182;5.736;2022-07-24T04:20:26;99466.16;;;25.66;45.41
66196;BME280;53000;45.182;5.736;2022-07-24T04:22:51;99473.94;;;25.64;46.55
66196;BME280;53000;45.182;5.736;2022-07-24T04:25:17;99473.88;;;25.59;46.39
66196;BME280;53000;45.182;5.736;2022-07-24T04:27:42;99474.13;;;25.58;45.77
66196;BME280;53000;45.182;5.736;2022-07-24T04:30:09;99474.44;;;25.61;45.73
66196;BME280;53000;45.182;5.736;2022-07-24T04:32:35;99474.78;;;25.65;45.10
66196;BME280;53000;45.182;5.736;2022-07-24T04:35:01;99472.03;;;25.70;45.45
66196;BME280;53000;45.182;5.736;2022-07-24T04:37:26;99462.09;;;25.74;45.30
66196;BME280;53000;45.182;5.736;2022-07-24T04:39:52;99465.44;;;25.76;45.34
66196;BME280;53000;45.182;5.736;2022-07-24T04:42:17;99483.25;;;25.85;45.19
66196;BME280;53000;45.182;5.736;2022-07-24T04:44:43;99477.22;;;25.88;44.98
66196;BME280;53000;45.182;5.736;2022-07-24T04:47:08;99478.59;;;25.91;45.41
66196;BME280;53000;45.182;5.736;2022-07-24T04:49:33;99473.84;;;25.86;45.19
66196;BME280;53000;45.182;5.736;2022-07-24T04:51:59;99485.25;;;25.90;44.91
66196;BME280;53000;45.182;5.736;2022-07-24T04:54:24;99486.34;;;25.89;44.91
66196;BME280;53000;45.182;5.736;2022-07-24T04:56:50;99487.75;;;25.91;44.64
66196;BME280;53000;45.182;5.736;2022-07-24T04:59:15;99484.19;;;25.96;45.34
66196;BME280;53000;45.182;5.736;2022-07-24T05:01:40;99486.97;;;25.96;45.39
66196;BME280;53000;45.182;5.736;2022-07-24T05:04:06;99487.53;;;25.98;45.43
66196;BME280;53000;45.182;5.736;2022-07-24T05:06:31;99479.22;;;25.98;45.29
66196;BME280;53000;45.182;5.736;2022-07-24T05:08:57;99486.69;;;25.98;45.19
66196;BME280;53000;45.182;5.736;2022-07-24T05:11:22;99486.66;;;25.93;45.32
66196;BME280;53000;45.182;5.736;2022-07-24T05:13:48;99483.31;;;25.90;45.01
66196;BME280;53000;45.182;5.736;2022-07-24T05:16:13;99493.31;;;25.91;45.12
66196;BME280;53000;45.182;5.736;2022-07-24T05:18:38;99492.47;;;25.91;45.58
66196;BME280;53000;45.182;5.736;2022-07-24T05:21:04;99493.31;;;25.91;45.40
66196;BME280;53000;45.182;5.736;2022-07-24T05:23:29;99491.09;;;25.94;45.61
66196;BME280;53000;45.182;5.736;2022-07-24T05:25:55;99488.00;;;25.90;45.11
66196;BME280;53000;45.182;5.736;2022-07-24T05:28:20;99493.03;;;25.93;46.07
66196;BME280;53000;45.182;5.736;2022-07-24T05:30:45;99489.69;;;25.91;45.49
66196;BME280;53000;45.182;5.736;2022-07-24T05:33:11;99496.91;;;25.92;46.03
66196;BME280;53000;45.182;5.736;2022-07-24T05:35:36;99500.53;;;25.93;45.91
66196;BME280;53000;45.182;5.736;2022-07-24T05:38:02;99496.34;;;25.90;45.46
66196;BME280;53000;45.182;5.736;2022-07-24T05:40:27;99491.66;;;25.90;45.78
66196;BME280;53000;45.182;5.736;2022-07-24T05:42:52;99498.34;;;25.95;45.52
66196;BME280;53000;45.182;5.736;2022-07-24T05:45:18;99489.22;;;25.99;45.47
66196;BME280;53000;45.182;5.736;2022-07-24T05:47:43;99484.53;;;26.05;45.39
66196;BME280;53000;45.182;5.736;2022-07-24T05:50:11;99484.31;;;26.11;45.47
66196;BME280;53000;45.182;5.736;2022-07-24T05:52:37;99492.97;;;26.20;45.36
66196;BME280;53000;45.182;5.736;2022-07-24T05:55:03;99484.09;;;26.23;45.58
66196;BME280;53000;45.182;5.736;2022-07-24T05:57:29;99484.69;;;26.30;45.65
66196;BME280;53000;45.182;5.736;2022-07-24T05:59:54;99483.91;;;26.35;45.50
66196;BME280;53000;45.182;5.736;2022-07-24T06:02:20;99485.31;;;26.38;45.54
66196;BME280;53000;45.182;5.736;2022-07-24T06:04:45;99482.03;;;26.46;45.95
66196;BME280;53000;45.182;5.736;2022-07-24T06:07:11;99477.59;;;26.50;45.97
66196;BME280;53000;45.182;5.736;2022-07-24T06:09:37;99479.31;;;26.56;45.47
66196;BME280;53000;45.182;5.736;2022-07-24T06:12:03;99475.47;;;26.62;45.21
66196;BME280;53000;45.182;5.736;2022-07-24T06:14:30;99473.25;;;26.64;45.22
66196;BME280;53000;45.182;5.736;2022-07-24T06:16:56;99481.31;;;26.71;44.68
66196;BME280;53000;45.182;5.736;2022-07-24T06:19:21;99475.50;;;26.72;44.60
66196;BME280;53000;45.182;5.736;2022-07-24T06:21:47;99470.78;;;26.73;44.65
66196;BME280;53000;45.182;5.736;2022-07-24T06:24:12;99473.56;;;26.73;44.50
66196;BME280;53000;45.182;5.736;2022-07-24T06:26:38;99468.84;;;26.73;44.38
66196;BME280;53000;45.182;5.736;2022-07-24T06:29:03;99471.91;;;26.77;44.80
66196;BME280;53000;45.182;5.736;2022-07-24T06:31:29;99467.19;;;26.78;44.42
66196;BME280;53000;45.182;5.736;2022-07-24T06:33:55;99470.81;;;26.78;44.40
66196;BME280;53000;45.182;5.736;2022-07-24T06:36:20;99470.28;;;26.81;44.90
66196;BME280;53000;45.182;5.736;2022-07-24T06:38:46;99467.50;;;26.86;44.70
66196;BME280;53000;45.182;5.736;2022-07-24T06:41:11;99459.72;;;26.88;44.38
66196;BME280;53000;45.182;5.736;2022-07-24T06:43:36;99458.38;;;26.91;44.14
66196;BME280;53000;45.182;5.736;2022-07-24T06:46:02;99453.91;;;26.90;43.78
66196;BME280;53000;45.182;5.736;2022-07-24T06:48:29;99460.28;;;26.90;43.77
66196;BME280;53000;45.182;5.736;2022-07-24T06:50:55;99463.38;;;26.89;43.97
66196;BME280;53000;45.182;5.736;2022-07-24T06:53:20;99462.81;;;26.92;44.24
66196;BME280;53000;45.182;5.736;2022-07-24T06:55:45;99459.50;;;27.00;43.71
66196;BME280;53000;45.182;5.736;2022-07-24T06:58:12;99466.19;;;27.04;43.82
66196;BME280;53000;45.182;5.736;2022-07-24T07:00:37;99451.16;;;27.05;43.90
66196;BME280;53000;45.182;5.736;2022-07-24T07:03:02;99461.47;;;27.10;44.00
66196;BME280;53000;45.182;5.736;2022-07-24T07:05:28;99460.38;;;27.16;43.46
66196;BME280;53000;45.182;5.736;2022-07-24T07:07:53;99457.34;;;27.23;43.60
66196;BME280;53000;45.182;5.736;2022-07-24T07:10:19;99451.00;;;27.27;43.55
66196;BME280;53000;45.182;5.736;2022-07-24T07:12:44;99462.94;;;27.33;43.32
66196;BME280;53000;45.182;5.736;2022-07-24T07:15:10;99451.53;;;27.40;42.94
66196;BME280;53000;45.182;5.736;2022-07-24T07:17:39;99452.66;;;27.44;42.86
66196;BME280;53000;45.182;5.736;2022-07-24T07:20:06;99454.34;;;27.55;42.87
66196;BME280;53000;45.182;5.736;2022-07-24T07:22:31;99449.91;;;27.54;43.36
66196;BME280;53000;45.182;5.736;2022-07-24T07:24:57;99451.56;;;27.55;42.84
66196;BME280;53000;45.182;5.736;2022-07-24T07:27:22;99451.84;;;27.59;43.13
66196;BME280;53000;45.182;5.736;2022-07-24T07:29:48;99440.72;;;27.59;42.52
66196;BME280;53000;45.182;5.736;2022-07-24T07:32:13;99447.13;;;27.64;42.48
66196;BME280;53000;45.182;5.736;2022-07-24T07:34:38;99446.00;;;27.70;42.86
66196;BME280;53000;45.182;5.736;2022-07-24T07:37:04;99446.00;;;27.76;42.33
66196;BME280;53000;45.182;5.736;2022-07-24T07:39:29;99440.72;;;27.79;42.38
66196;BME280;53000;45.182;5.736;2022-07-24T07:41:54;99438.75;;;27.85;42.11
66196;BME280;53000;45.182;5.736;2022-07-24T07:44:20;99446.31;;;27.89;42.61
66196;BME280;53000;45.182;5.736;2022-07-24T07:46:45;99437.13;;;27.94;42.09
66196;BME280;53000;45.182;5.736;2022-07-24T07:49:11;99440.72;;;28.05;42.16
66196;BME280;53000;45.182;5.736;2022-07-24T07:51:36;99439.19;;;28.53;41.65
66196;BME280;53000;45.182;5.736;2022-07-24T07:54:02;99440.94;;;30.12;40.53
66196;BME280;53000;45.182;5.736;2022-07-24T07:56:27;99441.31;;;32.52;35.82
66196;BME280;53000;45.182;5.736;2022-07-24T07:58:56;99441.59;;;34.81;34.19
66196;BME280;53000;45.182;5.736;2022-07-24T08:01:21;99433.78;;;36.56;27.87
66196;BME280;53000;45.182;5.736;2022-07-24T08:03:46;99439.94;;;37.93;29.37
66196;BME280;53000;45.182;5.736;2022-07-24T08:06:12;99448.00;;;39.39;28.67
66196;BME280;53000;45.182;5.736;2022-07-24T08:08:38;99441.06;;;40.53;26.57
66196;BME280;53000;45.182;5.736;2022-07-24T08:11:03;99436.81;;;41.49;22.36
66196;BME280;53000;45.182;5.736;2022-07-24T08:13:29;99440.41;;;42.04;23.48
66196;BME280;53000;45.182;5.736;2022-07-24T08:15:54;99430.88;;;42.62;22.23
66196;BME280;53000;45.182;5.736;2022-07-24T08:18:19;99441.63;;;43.26;20.80
66196;BME280;53000;45.182;5.736;2022-07-24T08:20:45;99433.22;;;43.70;20.59
66196;BME280;53000;45.182;5.736;2022-07-24T08:23:10;99439.16;;;43.92;20.89
66196;BME280;53000;45.182;5.736;2022-07-24T08:25:35;99431.59;;;44.44;18.24
66196;BME280;53000;45.182;5.736;2022-07-24T08:28:01;99432.28;;;44.82;19.89
66196;BME280;53000;45.182;5.736;2022-07-24T08:30:26;99430.81;;;45.10;17.45
66196;BME280;53000;45.182;5.736;2022-07-24T08:32:52;99423.91;;;45.18;19.37
66196;BME280;53000;45.182;5.736;2022-07-24T08:35:18;99424.88;;;45.40;18.06
66196;BME280;53000;45.182;5.736;2022-07-24T08:37:43;99430.22;;;45.45;18.87
66196;BME280;53000;45.182;5.736;2022-07-24T08:40:10;99424.50;;;45.49;19.20
66196;BME280;53000;45.182;5.736;2022-07-24T08:42:36;99419.56;;;45.39;19.29
66196;BME280;53000;45.182;5.736;2022-07-24T08:45:03;99421.47;;;45.13;18.25
66196;BME280;53000;45.182;5.736;2022-07-24T08:47:30;99415.81;;;44.61;19.57
66196;BME280;53000;45.182;5.736;2022-07-24T08:49:57;99408.88;;;44.18;19.11
66196;BME280;53000;45.182;5.736;2022-07-24T08:52:24;99408.97;;;43.87;19.28
66196;BME280;53000;45.182;5.736;2022-07-24T08:54:50;99413.72;;;43.39;18.38
66196;BME280;53000;45.182;5.736;2022-07-24T08:57:16;99392.31;;;42.92;20.67
66196;BME280;53000;45.182;5.736;2022-07-24T08:59:41;99399.94;;;42.61;20.42
66196;BME280;53000;45.182;5.736;2022-07-24T09:02:08;99393.13;;;42.19;21.24
66196;BME280;53000;45.182;5.736;2022-07-24T09:04:37;99389.56;;;41.99;21.92
66196;BME280;53000;45.182;5.736;2022-07-24T09:07:06;99390.91;;;41.66;20.34
66196;BME280;53000;45.182;5.736;2022-07-24T09:09:32;99385.91;;;41.40;21.74
66196;BME280;53000;45.182;5.736;2022-07-24T09:14:40;99384.28;;;41.59;21.63
66196;BME280;53000;45.182;5.736;2022-07-24T09:17:08;99382.84;;;41.68;20.56
66196;BME280;53000;45.182;5.736;2022-07-24T09:19:53;99382.94;;;41.95;21.67
66196;BME280;53000;45.182;5.736;2022-07-24T09:22:33;99383.97;;;42.06;20.28
66196;BME280;53000;45.182;5.736;2022-07-24T09:25:09;99383.72;;;42.15;21.05
66196;BME280;53000;45.182;5.736;2022-07-24T09:27:36;99369.69;;;42.26;20.41
66196;BME280;53000;45.182;5.736;2022-07-24T09:30:04;99365.94;;;42.22;20.77
66196;BME280;53000;45.182;5.736;2022-07-24T09:32:30;99369.41;;;42.35;20.54
66196;BME280;53000;45.182;5.736;2022-07-24T09:34:55;99364.16;;;42.37;20.62
66196;BME280;53000;45.182;5.736;2022-07-24T09:37:21;99369.56;;;42.19;19.96
66196;BME280;53000;45.182;5.736;2022-07-24T09:39:47;99359.97;;;42.04;20.61
66196;BME280;53000;45.182;5.736;2022-07-24T09:42:13;99357.59;;;41.86;20.82
66196;BME280;53000;45.182;5.736;2022-07-24T09:44:39;99355.03;;;42.01;19.69
66196;BME280;53000;45.182;5.736;2022-07-24T09:47:07;99351.06;;;41.86;20.15
66196;BME280;53000;45.182;5.736;2022-07-24T09:49:33;99347.50;;;41.89;20.80
66196;BME280;53000;45.182;5.736;2022-07-24T09:54:34;99341.78;;;41.66;21.00
66196;BME280;53000;45.182;5.736;2022-07-24T10:02:18;99332.75;;;41.02;21.35
66196;BME280;53000;45.182;5.736;2022-07-24T10:04:45;99327.88;;;40.83;21.52
66196;BME280;53000;45.182;5.736;2022-07-24T10:07:13;99332.84;;;40.86;20.83
66196;BME280;53000;45.182;5.736;2022-07-24T10:09:47;99327.06;;;40.82;21.50
66196;BME280;53000;45.182;5.736;2022-07-24T10:12:15;99323.91;;;40.87;21.91
66196;BME280;53000;45.182;5.736;2022-07-24T10:14:43;99323.56;;;40.89;22.05
66196;BME280;53000;45.182;5.736;2022-07-24T10:17:11;99310.13;;;40.86;21.00
66196;BME280;53000;45.182;5.736;2022-07-24T10:19:45;99307.34;;;40.90;22.15
66196;BME280;53000;45.182;5.736;2022-07-24T10:22:19;99315.13;;;40.93;20.55
66196;BME280;53000;45.182;5.736;2022-07-24T10:24:59;99307.72;;;40.88;21.28
66196;BME280;53000;45.182;5.736;2022-07-24T10:27:35;99307.28;;;40.86;21.62
66196;BME280;53000;45.182;5.736;2022-07-24T10:30:06;99298.16;;;40.77;21.72
66196;BME280;53000;45.182;5.736;2022-07-24T10:32:34;99300.44;;;40.71;21.36
66196;BME280;53000;45.182;5.736;2022-07-24T10:37:58;99303.38;;;40.39;21.74
66196;BME280;53000;45.182;5.736;2022-07-24T10:40:45;99287.00;;;40.17;21.97
66196;BME280;53000;45.182;5.736;2022-07-24T10:43:15;99279.63;;;39.96;21.65
66196;BME280;53000;45.182;5.736;2022-07-24T10:45:43;99273.66;;;39.70;21.90
66196;BME280;53000;45.182;5.736;2022-07-24T10:53:52;99264.66;;;39.08;23.08
66196;BME280;53000;45.182;5.736;2022-07-24T10:56:24;99260.56;;;38.93;22.74
66196;BME280;53000;45.182;5.736;2022-07-24T10:59:07;99255.44;;;38.82;23.05
66196;BME280;53000;45.182;5.736;2022-07-24T11:01:40;99252.16;;;38.80;23.33
66196;BME280;53000;45.182;5.736;2022-07-24T11:06:46;99249.63;;;38.63;23.07
66196;BME280;53000;45.182;5.736;2022-07-24T11:09:13;99239.63;;;38.53;23.52
66196;BME280;53000;45.182;5.736;2022-07-24T11:12:04;99242.22;;;38.46;23.75
66196;BME280;53000;45.182;5.736;2022-07-24T11:17:41;99242.91;;;38.43;23.65
66196;BME280;53000;45.182;5.736;2022-07-24T11:20:28;99227.75;;;38.35;23.64
66196;BME280;53000;45.182;5.736;2022-07-24T11:22:57;99222.25;;;38.27;23.74
66196;BME280;53000;45.182;5.736;2022-07-24T11:25:26;99220.25;;;38.15;23.66
66196;BME280;53000;45.182;5.736;2022-07-24T11:27:56;99204.81;;;38.12;23.45
66196;BME280;53000;45.182;5.736;2022-07-24T11:30:23;99216.59;;;38.14;24.17
66196;BME280;53000;45.182;5.736;2022-07-24T11:32:50;99202.44;;;38.27;23.28
66196;BME280;53000;45.182;5.736;2022-07-24T11:35:15;99203.69;;;38.41;23.40
66196;BME280;53000;45.182;5.736;2022-07-24T11:37:42;99190.28;;;38.51;22.96
66196;BME280;53000;45.182;5.736;2022-07-24T11:40:13;99198.13;;;38.57;22.98
66196;BME280;53000;45.182;5.736;2022-07-24T11:42:39;99181.53;;;38.56;22.52
66196;BME280;53000;45.182;5.736;2022-07-24T11:45:05;99186.00;;;38.57;22.29
66196;BME280;53000;45.182;5.736;2022-07-24T11:47:30;99179.63;;;38.60;22.48
66196;BME280;53000;45.182;5.736;2022-07-24T11:49:57;99175.97;;;38.59;22.16
66196;BME280;53000;45.182;5.736;2022-07-24T11:52:29;99162.34;;;38.49;22.29
66196;BME280;53000;45.182;5.736;2022-07-24T11:55:10;99159.03;;;38.47;23.14
66196;BME280;53000;45.182;5.736;2022-07-24T11:57:38;99161.03;;;38.46;22.85
66196;BME280;53000;45.182;5.736;2022-07-24T12:00:06;99161.03;;;38.46;23.00
66196;BME280;53000;45.182;5.736;2022-07-24T12:02:34;99146.06;;;38.46;22.79
66196;BME280;53000;45.182;5.736;2022-07-24T12:05:00;99151.13;;;38.53;22.83
66196;BME280;53000;45.182;5.736;2022-07-24T12:07:26;99146.41;;;38.57;22.31
66196;BME280;53000;45.182;5.736;2022-07-24T12:09:54;99139.09;;;38.56;22.41
66196;BME280;53000;45.182;5.736;2022-07-24T12:12:25;99140.38;;;38.58;22.29
66196;BME280;53000;45.182;5.736;2022-07-24T12:14:53;99140.84;;;38.60;21.81
66196;BME280;53000;45.182;5.736;2022-07-24T12:17:19;99132.34;;;38.60;21.93
66196;BME280;53000;45.182;5.736;2022-07-24T12:19:53;99131.19;;;38.61;22.09
66196;BME280;53000;45.182;5.736;2022-07-24T12:22:20;99127.00;;;38.71;22.36
66196;BME280;53000;45.182;5.736;2022-07-24T12:24:47;99115.97;;;38.82;22.19
66196;BME280;53000;45.182;5.736;2022-07-24T12:27:32;99115.22;;;38.97;22.11
66196;BME280;53000;45.182;5.736;2022-07-24T12:29:57;99121.06;;;39.04;22.02
66196;BME280;53000;45.182;5.736;2022-07-24T12:32:22;99111.91;;;39.11;20.97
66196;BME280;53000;45.182;5.736;2022-07-24T12:34:48;99102.50;;;39.07;20.50
66196;BME280;53000;45.182;5.736;2022-07-24T12:37:21;99103.97;;;39.01;21.00
66196;BME280;53000;45.182;5.736;2022-07-24T12:39:49;99098.69;;;38.99;21.51
66196;BME280;53000;45.182;5.736;2022-07-24T12:42:15;99095.13;;;39.02;22.41
66196;BME280;53000;45.182;5.736;2022-07-24T12:44:42;99091.38;;;39.14;22.87
66196;BME280;53000;45.182;5.736;2022-07-24T12:47:09;99080.69;;;39.23;22.43
66196;BME280;53000;45.182;5.736;2022-07-24T12:49:42;99084.69;;;39.38;22.83
66196;BME280;53000;45.182;5.736;2022-07-24T12:52:21;99085.78;;;39.50;22.31
66196;BME280;53000;45.182;5.736;2022-07-24T12:54:50;99078.06;;;39.46;21.80
66196;BME280;53000;45.182;5.736;2022-07-24T12:57:15;99069.00;;;39.41;22.14
66196;BME280;53000;45.182;5.736;2022-07-24T12:59:45;99065.53;;;39.47;22.18
66196;BME280;53000;45.182;5.736;2022-07-24T13:02:15;99072.91;;;39.52;21.75
66196;BME280;53000;45.182;5.736;2022-07-24T13:04:46;99061.13;;;39.50;22.11
66196;BME280;53000;45.182;5.736;2022-07-24T13:07:13;99062.78;;;39.51;22.00
66196;BME280;53000;45.182;5.736;2022-07-24T13:09:39;99048.97;;;39.50;22.43
66196;BME280;53000;45.182;5.736;2022-07-24T13:12:06;99045.84;;;39.55;22.13
66196;BME280;53000;45.182;5.736;2022-07-24T13:14:32;99048.47;;;39.63;22.47
66196;BME280;53000;45.182;5.736;2022-07-24T13:17:03;99040.59;;;39.73;21.89
66196;BME280;53000;45.182;5.736;2022-07-24T13:19:29;99037.00;;;39.76;21.64
66196;BME280;53000;45.182;5.736;2022-07-24T13:21:54;99034.63;;;39.78;21.71